sensor_id;sensor_type;location;lat;lon;timestamp;pressure;altitude;pressure_sealevel;temperature;humidity
11099;BME280;12223;42.650;23.364;2024-02-16T00:00:01;95353.47;;;0.36;73.65
11099;BME280;12223;42.650;23.364;2024-02-16T00:02:26;95350.69;;;0.54;73.15
11099;BME280;12223;42.650;23.364;2024-02-16T00:04:52;95348.09;;;0.31;74.75
11099;BME280;12223;42.650;23.364;2024-02-16T00:07:17;95352.47;;;0.45;74.78
11099;BME280;12223;42.650;23.364;2024-02-16T00:09:43;95356.09;;;0.59;74.49
11099;BME280;12223;42.650;23.364;2024-02-16T00:12:08;95356.16;;;0.73;73.08
11099;BME280;12223;42.650;23.364;2024-02-16T00:14:33;95350.84;;;0.60;73.73
11099;BME280;12223;42.650;23.364;2024-02-16T00:16:59;95353.69;;;0.57;74.00
11099;BME280;12223;42.650;23.364;2024-02-16T00:19:24;95349.53;;;0.25;73.31
11099;BME280;12223;42.650;23.364;2024-02-16T00:21:50;95355.59;;;0.08;75.85
11099;BME280;12223;42.650;23.364;2024-02-16T00:24:16;95349.72;;;0.08;75.58
11099;BME280;12223;42.650;23.364;2024-02-16T00:26:41;95360.03;;;0.14;75.97
11099;BME280;12223;42.650;23.364;2024-02-16T00:29:08;95357.63;;;0.13;75.69
11099;BME280;12223;42.650;23.364;2024-02-16T00:31:34;95364.50;;;0.04;75.13
11099;BME280;12223;42.650;23.364;2024-02-16T00:33:59;95356.41;;;-0.08;75.85
11099;BME280;12223;42.650;23.364;2024-02-16T00:36:26;95362.53;;;0.22;74.60
11099;BME280;12223;42.650;23.364;2024-02-16T00:38:53;95362.38;;;0.16;75.91
11099;BME280;12223;42.650;23.364;2024-02-16T00:41:22;95357.63;;;0.13;74.79
11099;BME280;12223;42.650;23.364;2024-02-16T00:43:47;95356.06;;;-0.05;75.55
11099;BME280;12223;42.650;23.364;2024-02-16T00:46:13;95353.22;;;-0.02;75.95
11099;BME280;12223;42.650;23.364;2024-02-16T00:48:38;95356.56;;;-0.09;76.68
11099;BME280;12223;42.650;23.364;2024-02-16T00:51:04;95360.53;;;-0.07;76.18
11099;BME280;12223;42.650;23.364;2024-02-16T00:53:29;95366.91;;;-0.27;76.17
11099;BME280;12223;42.650;23.364;2024-02-16T00:55:55;95368.81;;;-0.37;76.09
11099;BME280;12223;42.650;23.364;2024-02-16T00:58:20;95366.09;;;-0.44;77.35
11099;BME280;12223;42.650;23.364;2024-02-16T01:00:46;95366.72;;;-0.25;76.36
11099;BME280;12223;42.650;23.364;2024-02-16T01:03:11;95365.47;;;-0.21;76.84
11099;BME280;12223;42.650;23.364;2024-02-16T01:05:40;95362.94;;;-0.37;76.52
11099;BME280;12223;42.650;23.364;2024-02-16T01:08:06;95355.94;;;-0.44;76.77
11099;BME280;12223;42.650;23.364;2024-02-16T01:10:31;95366.72;;;-0.25;76.59
11099;BME280;12223;42.650;23.364;2024-02-16T01:12:57;95357.69;;;-0.20;76.58
11099;BME280;12223;42.650;23.364;2024-02-16T01:15:22;95355.78;;;-0.34;77.46
11099;BME280;12223;42.650;23.364;2024-02-16T01:17:48;95363.88;;;-0.30;76.79
11099;BME280;12223;42.650;23.364;2024-02-16T01:20:13;95353.09;;;-0.16;75.67
11099;BME280;12223;42.650;23.364;2024-02-16T01:22:39;95351.16;;;-0.14;76.11
11099;BME280;12223;42.650;23.364;2024-02-16T01:25:05;95353.41;;;-0.11;74.90
11099;BME280;12223;42.650;23.364;2024-02-16T01:27:31;95355.94;;;-0.19;74.89
11099;BME280;12223;42.650;23.364;2024-02-16T01:29:57;95355.94;;;-0.19;75.26
11099;BME280;12223;42.650;23.364;2024-02-16T01:32:22;95352.28;;;-0.41;76.27
11099;BME280;12223;42.650;23.364;2024-02-16T01:34:47;95341.34;;;-0.33;75.63
11099;BME280;12223;42.650;23.364;2024-02-16T01:37:15;95348.66;;;-0.55;77.22
11099;BME280;12223;42.650;23.364;2024-02-16T01:39:40;95348.03;;;-0.49;77.14
11099;BME280;12223;42.650;23.364;2024-02-16T01:42:05;95337.88;;;-0.32;76.96
11099;BME280;12223;42.650;23.364;2024-02-16T01:44:31;95342.44;;;-0.04;74.79
11099;BME280;12223;42.650;23.364;2024-02-16T01:46:56;95347.50;;;-0.04;75.02
11099;BME280;12223;42.650;23.364;2024-02-16T01:49:22;95335.31;;;-0.32;76.37
11099;BME280;12223;42.650;23.364;2024-02-16T01:51:48;95339.28;;;-0.46;76.25
11099;BME280;12223;42.650;23.364;2024-02-16T01:54:14;95340.25;;;-0.63;76.31
11099;BME280;12223;42.650;23.364;2024-02-16T01:56:43;95336.75;;;-0.70;77.17
11099;BME280;12223;42.650;23.364;2024-02-16T01:59:08;95338.63;;;-0.72;78.56
11099;BME280;12223;42.650;23.364;2024-02-16T02:01:34;95339.72;;;-0.91;79.39
11099;BME280;12223;42.650;23.364;2024-02-16T02:04:00;95338.31;;;-0.86;78.04
11099;BME280;12223;42.650;23.364;2024-02-16T02:06:25;95330.41;;;-0.74;77.17
11099;BME280;12223;42.650;23.364;2024-02-16T02:08:51;95334.22;;;-0.78;77.73
11099;BME280;12223;42.650;23.364;2024-02-16T02:11:16;95331.84;;;-0.64;77.83
11099;BME280;12223;42.650;23.364;2024-02-16T02:13:42;95331.66;;;-0.30;76.10
11099;BME280;12223;42.650;23.364;2024-02-16T02:16:10;95332.31;;;-0.52;76.29
11099;BME280;12223;42.650;23.364;2024-02-16T02:18:35;95325.81;;;-0.55;76.67
11099;BME280;12223;42.650;23.364;2024-02-16T02:21:01;95331.34;;;-0.59;76.37
11099;BME280;12223;42.650;23.364;2024-02-16T02:23:26;95327.56;;;-0.47;77.00
11099;BME280;12223;42.650;23.364;2024-02-16T02:25:52;95335.19;;;-0.47;75.74
11099;BME280;12223;42.650;23.364;2024-02-16T02:28:18;95336.09;;;-0.24;74.43
11099;BME280;12223;42.650;23.364;2024-02-16T02:30:44;95338.97;;;-0.35;74.55
11099;BME280;12223;42.650;23.364;2024-02-16T02:33:12;95335.78;;;-0.61;76.62
11099;BME280;12223;42.650;23.364;2024-02-16T02:35:39;95335.00;;;-0.70;75.94
11099;BME280;12223;42.650;23.364;2024-02-16T02:38:05;95338.03;;;-0.58;76.12
11099;BME280;12223;42.650;23.364;2024-02-16T02:40:31;95336.09;;;-0.72;76.41
11099;BME280;12223;42.650;23.364;2024-02-16T02:42:57;95340.56;;;-0.50;76.44
11099;BME280;12223;42.650;23.364;2024-02-16T02:45:23;95336.44;;;-0.59;76.97
11099;BME280;12223;42.650;23.364;2024-02-16T02:47:49;95340.06;;;-0.86;77.15
11099;BME280;12223;42.650;23.364;2024-02-16T02:50:14;95338.47;;;-0.87;76.55
11099;BME280;12223;42.650;23.364;2024-02-16T02:52:40;95337.69;;;-0.71;76.43
11099;BME280;12223;42.650;23.364;2024-02-16T02:55:06;95336.56;;;-0.77;77.14
11099;BME280;12223;42.650;23.364;2024-02-16T02:57:31;95331.03;;;-0.80;75.82
11099;BME280;12223;42.650;23.364;2024-02-16T03:00:07;95335.16;;;-0.79;77.07
11099;BME280;12223;42.650;23.364;2024-02-16T03:02:37;95338.94;;;-0.67;76.48
11099;BME280;12223;42.650;23.364;2024-02-16T03:05:04;95337.53;;;-0.78;76.54
11099;BME280;12223;42.650;23.364;2024-02-16T03:07:30;95335.88;;;-1.11;78.43
11099;BME280;12223;42.650;23.364;2024-02-16T03:09:55;95339.41;;;-1.04;78.86
11099;BME280;12223;42.650;23.364;2024-02-16T03:12:21;95337.38;;;-0.84;77.67
11099;BME280;12223;42.650;23.364;2024-02-16T03:14:47;95341.59;;;-0.93;78.19
11099;BME280;12223;42.650;23.364;2024-02-16T03:17:12;95335.41;;;-1.07;77.24
11099;BME280;12223;42.650;23.364;2024-02-16T03:19:37;95339.38;;;-1.12;78.42
11099;BME280;12223;42.650;23.364;2024-02-16T03:22:03;95334.16;;;-1.11;78.43
11099;BME280;12223;42.650;23.364;2024-02-16T03:24:28;95335.88;;;-1.19;78.95
11099;BME280;12223;42.650;23.364;2024-02-16T03:26:54;95334.44;;;-1.22;78.89
11099;BME280;12223;42.650;23.364;2024-02-16T03:29:19;95330.66;;;-1.02;78.72
11099;BME280;12223;42.650;23.364;2024-02-16T03:31:44;95336.41;;;-0.75;76.08
11099;BME280;12223;42.650;23.364;2024-02-16T03:34:10;95344.00;;;-0.92;76.70
11099;BME280;12223;42.650;23.364;2024-02-16T03:36:35;95342.09;;;-0.98;77.83
11099;BME280;12223;42.650;23.364;2024-02-16T03:39:00;95343.81;;;-1.06;78.13
11099;BME280;12223;42.650;23.364;2024-02-16T03:41:26;95338.91;;;-1.08;77.87
11099;BME280;12223;42.650;23.364;2024-02-16T03:43:51;95342.69;;;-1.12;77.52
11099;BME280;12223;42.650;23.364;2024-02-16T03:46:17;95339.53;;;-1.06;77.30
11099;BME280;12223;42.650;23.364;2024-02-16T03:48:42;95347.59;;;-1.18;78.65
11099;BME280;12223;42.650;23.364;2024-02-16T03:51:08;95348.56;;;-1.19;79.13
11099;BME280;12223;42.650;23.364;2024-02-16T03:53:33;95341.75;;;-1.11;78.72
11099;BME280;12223;42.650;23.364;2024-02-16T03:55:59;95342.06;;;-1.06;77.60
11099;BME280;12223;42.650;23.364;2024-02-16T03:58:25;95338.91;;;-1.08;77.35
11099;BME280;12223;42.650;23.364;2024-02-16T04:00:50;95345.31;;;-1.38;79.99
11099;BME280;12223;42.650;23.364;2024-02-16T04:03:18;95337.44;;;-1.18;79.61
11099;BME280;12223;42.650;23.364;2024-02-16T04:05:44;95338.00;;;-0.91;77.39
11099;BME280;12223;42.650;23.364;2024-02-16T04:08:09;95338.16;;;-0.84;77.52
11099;BME280;12223;42.650;23.364;2024-02-16T04:10:35;95350.00;;;-1.01;77.08
11099;BME280;12223;42.650;23.364;2024-02-16T04:13:01;95342.59;;;-0.94;78.24
11099;BME280;12223;42.650;23.364;2024-02-16T04:15:27;95340.84;;;-0.86;78.41
11099;BME280;12223;42.650;23.364;2024-02-16T04:17:52;95338.63;;;-0.72;76.71
11099;BME280;12223;42.650;23.364;2024-02-16T04:20:18;95338.81;;;-0.58;77.01
11099;BME280;12223;42.650;23.364;2024-02-16T04:22:44;95335.94;;;-0.71;76.34
11099;BME280;12223;42.650;23.364;2024-02-16T04:25:10;95335.16;;;-0.63;77.50
11099;BME280;12223;42.650;23.364;2024-02-16T04:27:36;95338.97;;;-0.51;77.40
11099;BME280;12223;42.650;23.364;2024-02-16T04:30:02;95338.34;;;-0.45;77.23
11099;BME280;12223;42.650;23.364;2024-02-16T04:32:28;95336.91;;;-0.56;75.55
11099;BME280;12223;42.650;23.364;2024-02-16T04:34:53;95341.16;;;-0.72;75.44
11099;BME280;12223;42.650;23.364;2024-02-16T04:37:21;95333.34;;;-1.03;76.17
11099;BME280;12223;42.650;23.364;2024-02-16T04:39:47;95334.63;;;-1.15;76.83
11099;BME280;12223;42.650;23.364;2024-02-16T04:42:12;95345.97;;;-1.27;77.75
11099;BME280;12223;42.650;23.364;2024-02-16T04:44:38;95341.34;;;-1.40;79.31
11099;BME280;12223;42.650;23.364;2024-02-16T04:47:06;95347.72;;;-1.28;77.85
11099;BME280;12223;42.650;23.364;2024-02-16T04:49:32;95344.56;;;-1.22;79.05
11099;BME280;12223;42.650;23.364;2024-02-16T04:51:57;95347.63;;;-1.02;77.09
11099;BME280;12223;42.650;23.364;2024-02-16T04:54:23;95347.44;;;-1.25;76.81
11099;BME280;12223;42.650;23.364;2024-02-16T04:56:49;95347.75;;;-1.62;78.02
11099;BME280;12223;42.650;23.364;2024-02-16T04:59:16;95352.09;;;-1.46;79.47
11099;BME280;12223;42.650;23.364;2024-02-16T05:01:42;95348.09;;;-1.07;77.80
11099;BME280;12223;42.650;23.364;2024-02-16T05:04:08;95357.34;;;-0.90;76.96
11099;BME280;12223;42.650;23.364;2024-02-16T05:06:38;95353.03;;;-0.97;75.53
11099;BME280;12223;42.650;23.364;2024-02-16T05:09:04;95358.28;;;-0.91;75.73
11099;BME280;12223;42.650;23.364;2024-02-16T05:11:32;95356.06;;;-0.86;76.05
11099;BME280;12223;42.650;23.364;2024-02-16T05:13:57;95360.53;;;-0.79;76.74
11099;BME280;12223;42.650;23.364;2024-02-16T05:16:23;95367.81;;;-0.76;76.55
11099;BME280;12223;42.650;23.364;2024-02-16T05:18:48;95369.56;;;-0.69;77.32
11099;BME280;12223;42.650;23.364;2024-02-16T05:21:14;95363.22;;;-0.81;76.45
11099;BME280;12223;42.650;23.364;2024-02-16T05:23:39;95375.28;;;-0.75;76.43
11099;BME280;12223;42.650;23.364;2024-02-16T05:26:05;95385.84;;;-0.96;76.16
11099;BME280;12223;42.650;23.364;2024-02-16T05:28:30;95378.91;;;-0.86;75.98
11099;BME280;12223;42.650;23.364;2024-02-16T05:30:56;95382.19;;;-1.09;75.37
11099;BME280;12223;42.650;23.364;2024-02-16T05:33:22;95381.31;;;-1.26;77.71
11099;BME280;12223;42.650;23.364;2024-02-16T05:35:48;95383.94;;;-1.44;76.92
11099;BME280;12223;42.650;23.364;2024-02-16T05:38:20;95378.97;;;-1.19;77.75
11099;BME280;12223;42.650;23.364;2024-02-16T05:40:57;95383.78;;;-1.00;76.90
11099;BME280;12223;42.650;23.364;2024-02-16T05:43:23;95386.03;;;-0.81;77.30
11099;BME280;12223;42.650;23.364;2024-02-16T05:45:51;95381.78;;;0.09;74.83
11099;BME280;12223;42.650;23.364;2024-02-16T05:48:16;95389.16;;;1.28;70.69
11099;BME280;12223;42.650;23.364;2024-02-16T05:50:41;95400.47;;;2.76;63.96
11099;BME280;12223;42.650;23.364;2024-02-16T05:53:08;95392.16;;;4.24;59.34
11099;BME280;12223;42.650;23.364;2024-02-16T05:55:36;95397.38;;;5.12;54.67
11099;BME280;12223;42.650;23.364;2024-02-16T05:58:01;95400.94;;;6.58;52.02
11099;BME280;12223;42.650;23.364;2024-02-16T06:00:26;95398.00;;;8.19;45.92
11099;BME280;12223;42.650;23.364;2024-02-16T06:02:52;95391.47;;;9.39;43.91
11099;BME280;12223;42.650;23.364;2024-02-16T06:05:18;95402.44;;;10.59;39.76
11099;BME280;12223;42.650;23.364;2024-02-16T06:07:45;95401.88;;;11.72;37.80
11099;BME280;12223;42.650;23.364;2024-02-16T06:10:10;95398.59;;;12.71;34.24
11099;BME280;12223;42.650;23.364;2024-02-16T06:12:37;95410.06;;;11.52;36.27
11099;BME280;12223;42.650;23.364;2024-02-16T06:15:04;95415.78;;;12.11;36.19
11099;BME280;12223;42.650;23.364;2024-02-16T06:17:30;95406.09;;;10.16;39.22
11099;BME280;12223;42.650;23.364;2024-02-16T06:19:55;95412.66;;;10.54;38.84
11099;BME280;12223;42.650;23.364;2024-02-16T06:22:20;95413.59;;;13.46;34.57
11099;BME280;12223;42.650;23.364;2024-02-16T06:24:46;95423.41;;;15.30;31.17
11099;BME280;12223;42.650;23.364;2024-02-16T06:27:11;95422.94;;;16.31;29.47
11099;BME280;12223;42.650;23.364;2024-02-16T06:29:37;95415.91;;;16.82;28.05
11099;BME280;12223;42.650;23.364;2024-02-16T06:32:02;95416.22;;;17.55;26.26
11099;BME280;12223;42.650;23.364;2024-02-16T06:34:28;95424.38;;;15.71;28.41
11099;BME280;12223;42.650;23.364;2024-02-16T06:36:53;95423.69;;;17.03;27.97
11099;BME280;12223;42.650;23.364;2024-02-16T06:39:19;95410.31;;;17.89;26.18
11099;BME280;12223;42.650;23.364;2024-02-16T06:41:45;95413.50;;;18.87;24.70
11099;BME280;12223;42.650;23.364;2024-02-16T06:44:12;95418.44;;;19.46;24.62
11099;BME280;12223;42.650;23.364;2024-02-16T06:46:38;95421.06;;;20.91;22.06
11099;BME280;12223;42.650;23.364;2024-02-16T06:49:03;95405.94;;;21.56;21.43
11099;BME280;12223;42.650;23.364;2024-02-16T06:51:29;95411.38;;;22.01;21.46
11099;BME280;12223;42.650;23.364;2024-02-16T06:53:54;95412.06;;;22.73;19.72
11099;BME280;12223;42.650;23.364;2024-02-16T06:56:20;95417.72;;;22.67;20.87
11099;BME280;12223;42.650;23.364;2024-02-16T06:58:46;95410.78;;;23.33;19.45
11099;BME280;12223;42.650;23.364;2024-02-16T07:01:13;95408.09;;;22.62;19.96
11099;BME280;12223;42.650;23.364;2024-02-16T07:03:38;95417.81;;;24.11;19.12
11099;BME280;12223;42.650;23.364;2024-02-16T07:06:04;95423.41;;;24.01;18.94
11099;BME280;12223;42.650;23.364;2024-02-16T07:08:33;95416.88;;;24.15;18.45
11099;BME280;12223;42.650;23.364;2024-02-16T07:10:58;95424.75;;;25.10;17.77
11099;BME280;12223;42.650;23.364;2024-02-16T07:13:24;95417.09;;;24.19;18.78
11099;BME280;12223;42.650;23.364;2024-02-16T07:15:49;95415.72;;;23.56;19.13
11099;BME280;12223;42.650;23.364;2024-02-16T07:18:16;95421.34;;;23.02;19.89
11099;BME280;12223;42.650;23.364;2024-02-16T07:20:41;95415.84;;;22.23;20.83
11099;BME280;12223;42.650;23.364;2024-02-16T07:23:06;95414.22;;;23.33;19.75
11099;BME280;12223;42.650;23.364;2024-02-16T07:25:32;95409.47;;;21.38;22.23
11099;BME280;12223;42.650;23.364;2024-02-16T07:27:57;95407.31;;;20.34;23.41
11099;BME280;12223;42.650;23.364;2024-02-16T07:30:23;95413.53;;;21.58;22.30
11099;BME280;12223;42.650;23.364;2024-02-16T07:32:51;95409.03;;;21.72;21.72
11099;BME280;12223;42.650;23.364;2024-02-16T07:35:18;95422.50;;;19.58;25.43
11099;BME280;12223;42.650;23.364;2024-02-16T07:37:43;95413.75;;;17.15;28.08
11099;BME280;12223;42.650;23.364;2024-02-16T07:40:09;95413.66;;;15.53;30.71
11099;BME280;12223;42.650;23.364;2024-02-16T07:42:38;95416.75;;;15.03;31.50
11099;BME280;12223;42.650;23.364;2024-02-16T07:45:05;95410.44;;;14.88;31.87
11099;BME280;12223;42.650;23.364;2024-02-16T07:47:31;95416.47;;;13.72;33.53
11099;BME280;12223;42.650;23.364;2024-02-16T07:49:57;95409.97;;;12.87;35.94
11099;BME280;12223;42.650;23.364;2024-02-16T07:52:23;95413.34;;;11.36;39.53
11099;BME280;12223;42.650;23.364;2024-02-16T07:54:48;95418.13;;;11.16;39.88
11099;BME280;12223;42.650;23.364;2024-02-16T07:57:14;95414.84;;;11.20;38.94
11099;BME280;12223;42.650;23.364;2024-02-16T07:59:40;95399.88;;;10.06;40.76
11099;BME280;12223;42.650;23.364;2024-02-16T08:02:06;95420.28;;;9.66;43.60
11099;BME280;12223;42.650;23.364;2024-02-16T08:04:32;95420.75;;;10.46;40.82
11099;BME280;12223;42.650;23.364;2024-02-16T08:06:58;95413.00;;;10.69;40.17
11099;BME280;12223;42.650;23.364;2024-02-16T08:09:23;95407.50;;;10.31;41.21
11099;BME280;12223;42.650;23.364;2024-02-16T08:11:48;95414.25;;;10.55;41.57
11099;BME280;12223;42.650;23.364;2024-02-16T08:14:14;95408.50;;;10.53;40.48
11099;BME280;12223;42.650;23.364;2024-02-16T08:16:39;95420.19;;;10.90;40.96
11099;BME280;12223;42.650;23.364;2024-02-16T08:19:06;95421.41;;;10.99;39.02
11099;BME280;12223;42.650;23.364;2024-02-16T08:21:31;95414.78;;;11.03;38.77
11099;BME280;12223;42.650;23.364;2024-02-16T08:23:57;95411.28;;;10.28;42.93
11099;BME280;12223;42.650;23.364;2024-02-16T08:26:22;95408.41;;;10.06;42.46
11099;BME280;12223;42.650;23.364;2024-02-16T08:28:48;95422.84;;;9.84;45.30
11099;BME280;12223;42.650;23.364;2024-02-16T08:31:17;95422.72;;;9.79;45.01
11099;BME280;12223;42.650;23.364;2024-02-16T08:33:44;95412.63;;;9.59;45.52
11099;BME280;12223;42.650;23.364;2024-02-16T08:36:09;95417.69;;;9.36;44.60
11099;BME280;12223;42.650;23.364;2024-02-16T08:38:36;95409.63;;;9.14;46.27
11099;BME280;12223;42.650;23.364;2024-02-16T08:41:02;95413.09;;;8.65;47.20
11099;BME280;12223;42.650;23.364;2024-02-16T08:43:28;95408.25;;;7.69;48.38
11099;BME280;12223;42.650;23.364;2024-02-16T08:45:54;95407.09;;;7.97;50.32
11099;BME280;12223;42.650;23.364;2024-02-16T08:48:20;95417.75;;;8.25;48.84
11099;BME280;12223;42.650;23.364;2024-02-16T08:50:46;95411.19;;;8.29;48.39
11099;BME280;12223;42.650;23.364;2024-02-16T08:53:12;95414.75;;;8.60;49.03
11099;BME280;12223;42.650;23.364;2024-02-16T08:55:39;95409.44;;;8.55;47.73
11099;BME280;12223;42.650;23.364;2024-02-16T08:58:12;95414.22;;;8.51;47.50
11099;BME280;12223;42.650;23.364;2024-02-16T09:00:44;95411.19;;;8.29;48.07
11099;BME280;12223;42.650;23.364;2024-02-16T09:03:13;95415.81;;;7.20;50.31
11099;BME280;12223;42.650;23.364;2024-02-16T09:05:43;95424.75;;;7.55;51.67
11099;BME280;12223;42.650;23.364;2024-02-16T09:08:14;95418.44;;;8.14;50.89
11099;BME280;12223;42.650;23.364;2024-02-16T09:10:39;95414.00;;;8.28;50.46
11099;BME280;12223;42.650;23.364;2024-02-16T09:13:04;95418.72;;;8.31;49.82
11099;BME280;12223;42.650;23.364;2024-02-16T09:15:30;95419.94;;;8.28;48.56
11099;BME280;12223;42.650;23.364;2024-02-16T09:17:55;95423.53;;;8.21;49.64
11099;BME280;12223;42.650;23.364;2024-02-16T09:20:20;95428.31;;;8.17;49.17
11099;BME280;12223;42.650;23.364;2024-02-16T09:22:48;95425.75;;;8.17;49.69
11099;BME280;12223;42.650;23.364;2024-02-16T09:25:14;95424.75;;;8.18;49.03
11099;BME280;12223;42.650;23.364;2024-02-16T09:27:40;95422.53;;;8.22;49.74
11099;BME280;12223;42.650;23.364;2024-02-16T09:30:11;95423.53;;;8.21;49.76
11099;BME280;12223;42.650;23.364;2024-02-16T09:32:39;95421.75;;;8.21;49.08
11099;BME280;12223;42.650;23.364;2024-02-16T09:35:05;95415.19;;;8.25;47.70
11099;BME280;12223;42.650;23.364;2024-02-16T09:37:31;95423.00;;;8.12;47.43
11099;BME280;12223;42.650;23.364;2024-02-16T09:39:56;95417.00;;;8.49;46.93
11099;BME280;12223;42.650;23.364;2024-02-16T09:42:23;95417.38;;;8.71;46.30
11099;BME280;12223;42.650;23.364;2024-02-16T09:44:52;95419.16;;;8.71;46.84
11099;BME280;12223;42.650;23.364;2024-02-16T09:47:18;95416.25;;;8.67;47.62
11099;BME280;12223;42.650;23.364;2024-02-16T09:49:45;95411.38;;;8.59;46.50
11099;BME280;12223;42.650;23.364;2024-02-16T09:52:11;95412.97;;;8.96;46.79
11099;BME280;12223;42.650;23.364;2024-02-16T09:54:37;95422.66;;;9.01;46.02
11099;BME280;12223;42.650;23.364;2024-02-16T09:57:04;95414.59;;;8.55;48.13
11099;BME280;12223;42.650;23.364;2024-02-16T09:59:29;95417.19;;;8.73;47.41
11099;BME280;12223;42.650;23.364;2024-02-16T10:02:03;95405.03;;;8.37;47.18
11099;BME280;12223;42.650;23.364;2024-02-16T10:04:29;95407.47;;;8.50;46.77
11099;BME280;12223;42.650;23.364;2024-02-16T10:06:54;95398.44;;;8.41;48.46
11099;BME280;12223;42.650;23.364;2024-02-16T10:09:28;95393.00;;;8.24;48.01
11099;BME280;12223;42.650;23.364;2024-02-16T10:12:00;95391.47;;;8.66;47.69
11099;BME280;12223;42.650;23.364;2024-02-16T10:14:26;95387.34;;;8.83;47.34
11099;BME280;12223;42.650;23.364;2024-02-16T10:19:28;95385.34;;;8.85;45.24
11099;BME280;12223;42.650;23.364;2024-02-16T10:21:53;95379.91;;;9.12;46.10
11099;BME280;12223;42.650;23.364;2024-02-16T10:24:21;95381.25;;;9.14;46.29
11099;BME280;12223;42.650;23.364;2024-02-16T10:26:47;95385.41;;;9.15;44.44
11099;BME280;12223;42.650;23.364;2024-02-16T10:29:17;95373.06;;;9.17;45.98
11099;BME280;12223;42.650;23.364;2024-02-16T10:31:45;95373.06;;;9.17;45.43
11099;BME280;12223;42.650;23.364;2024-02-16T10:34:10;95369.66;;;9.05;45.03
11099;BME280;12223;42.650;23.364;2024-02-16T10:36:37;95369.59;;;8.93;46.11
11099;BME280;12223;42.650;23.364;2024-02-16T10:39:04;95363.50;;;8.88;45.72
11099;BME280;12223;42.650;23.364;2024-02-16T10:41:34;95357.72;;;9.11;44.86
11099;BME280;12223;42.650;23.364;2024-02-16T10:44:03;95363.00;;;9.16;44.87
11099;BME280;12223;42.650;23.364;2024-02-16T10:46:29;95360.94;;;9.06;45.72
11099;BME280;12223;42.650;23.364;2024-02-16T10:48:55;95360.22;;;8.99;45.58
11099;BME280;12223;42.650;23.364;2024-02-16T10:51:25;95358.38;;;9.06;46.66
11099;BME280;12223;42.650;23.364;2024-02-16T10:53:54;95361.91;;;9.23;45.02
11099;BME280;12223;42.650;23.364;2024-02-16T10:56:32;95355.75;;;9.24;45.32
11099;BME280;12223;42.650;23.364;2024-02-16T10:59:01;95354.81;;;9.19;45.02
11099;BME280;12223;42.650;23.364;2024-02-16T11:01:32;95350.38;;;9.26;44.73
11099;BME280;12223;42.650;23.364;2024-02-16T11:04:01;95347.13;;;9.60;43.68
11099;BME280;12223;42.650;23.364;2024-02-16T11:06:27;95340.00;;;9.74;43.97
11099;BME280;12223;42.650;23.364;2024-02-16T11:08:53;95343.16;;;9.88;45.61
11099;BME280;12223;42.650;23.364;2024-02-16T11:11:24;95348.47;;;10.04;44.34
11099;BME280;12223;42.650;23.364;2024-02-16T11:13:54;95335.69;;;10.09;43.73
11099;BME280;12223;42.650;23.364;2024-02-16T11:16:20;95333.78;;;10.16;42.86
11099;BME280;12223;42.650;23.364;2024-02-16T11:18:47;95337.28;;;10.34;41.88
11099;BME280;12223;42.650;23.364;2024-02-16T11:21:16;95340.22;;;10.26;42.24
11099;BME280;12223;42.650;23.364;2024-02-16T11:23:42;95329.03;;;10.02;44.53
11099;BME280;12223;42.650;23.364;2024-02-16T11:26:12;95334.84;;;9.74;44.54
11099;BME280;12223;42.650;23.364;2024-02-16T11:28:40;95333.78;;;9.52;44.13
11099;BME280;12223;42.650;23.364;2024-02-16T11:31:06;95332.09;;;9.57;45.66
11099;BME280;12223;42.650;23.364;2024-02-16T11:33:32;95329.66;;;9.62;45.11
11099;BME280;12223;42.650;23.364;2024-02-16T11:36:00;95330.44;;;9.63;43.95
11099;BME280;12223;42.650;23.364;2024-02-16T11:38:26;95320.78;;;9.58;44.30
11099;BME280;12223;42.650;23.364;2024-02-16T11:43:24;95322.25;;;9.66;45.83
11099;BME280;12223;42.650;23.364;2024-02-16T11:45:50;95318.69;;;9.78;44.67
11099;BME280;12223;42.650;23.364;2024-02-16T11:48:23;95309.97;;;10.03;43.85
11099;BME280;12223;42.650;23.364;2024-02-16T11:50:49;95314.34;;;10.02;45.30
11099;BME280;12223;42.650;23.364;2024-02-16T11:53:18;95309.91;;;9.68;45.01
11099;BME280;12223;42.650;23.364;2024-02-16T11:55:47;95305.97;;;9.65;44.64
11099;BME280;12223;42.650;23.364;2024-02-16T11:58:16;95309.34;;;9.66;44.58
11099;BME280;12223;42.650;23.364;2024-02-16T12:00:44;95300.97;;;9.82;43.34
11099;BME280;12223;42.650;23.364;2024-02-16T12:03:10;95306.59;;;10.02;45.22
11099;BME280;12223;42.650;23.364;2024-02-16T12:05:35;95294.22;;;9.81;44.04
11099;BME280;12223;42.650;23.364;2024-02-16T12:08:01;95301.88;;;9.99;44.82
11099;BME280;12223;42.650;23.364;2024-02-16T12:10:26;95296.94;;;9.98;44.42
11099;BME280;12223;42.650;23.364;2024-02-16T12:12:55;95298.28;;;10.12;44.27
11099;BME280;12223;42.650;23.364;2024-02-16T12:15:22;95293.69;;;10.02;43.44
11099;BME280;12223;42.650;23.364;2024-02-16T12:17:58;95287.59;;;9.85;45.10
11099;BME280;12223;42.650;23.364;2024-02-16T12:20:24;95285.94;;;9.79;43.31
11099;BME280;12223;42.650;23.364;2024-02-16T12:22:49;95287.63;;;10.08;43.40
11099;BME280;12223;42.650;23.364;2024-02-16T12:25:14;95284.84;;;10.21;44.56
11099;BME280;12223;42.650;23.364;2024-02-16T12:27:40;95291.13;;;10.49;41.85
11099;BME280;12223;42.650;23.364;2024-02-16T12:30:06;95276.19;;;10.39;42.72
11099;BME280;12223;42.650;23.364;2024-02-16T12:32:32;95283.41;;;10.26;44.17
11099;BME280;12223;42.650;23.364;2024-02-16T12:34:57;95278.31;;;10.42;42.59
11099;BME280;12223;42.650;23.364;2024-02-16T12:37:23;95278.56;;;10.41;42.05
11099;BME280;12223;42.650;23.364;2024-02-16T12:39:49;95272.13;;;10.55;42.01
11099;BME280;12223;42.650;23.364;2024-02-16T12:42:14;95271.34;;;10.54;42.20
11099;BME280;12223;42.650;23.364;2024-02-16T12:44:39;95277.66;;;10.23;43.82
11099;BME280;12223;42.650;23.364;2024-02-16T12:47:06;95277.31;;;10.32;42.78
11099;BME280;12223;42.650;23.364;2024-02-16T12:49:31;95270.22;;;10.50;42.36
11099;BME280;12223;42.650;23.364;2024-02-16T12:51:57;95270.66;;;10.59;42.95